Terminal Aerodrome Forecast
Issued by NWS Jacksonville, FL

Current Version | Previous Version | Text Only | Print | Product List | Glossary On
Versions: 1 2 3 4 5 6 7 8 9 10 11 12 13 14 15 16 17 18 19 20 21 22 23 24 25 26 27 28 29 30 31
000
FTUS42 KJAX 062350 AAA
TAFJAX
TAF AMD
KJAX 062350Z 0700/0724 14007KT P6SM VCTS BKN050CB OVC250
      TEMPO 0700/0701 VRB10G20KT 4SM -TSRA OVC035CB
     FM070200 19003KT P6SM VCSH SCT030 BKN090 OVC250
     FM070500 00000KT P6SM SCT250
     FM071500 28005KT P6SM FEW035 SCT250
     FM072100 16008KT P6SM VCTS SCT050CB BKN250=

USA.gov is the U.S. government's official web portal to all federal, state and local government web resources and services.